Time;durP1;ratioP1;P1;durP2;ratioP2;P2;SDS_P1;SDS_P2;PMS_P1;PMS_P2;Temp;Humidity;BMP_temperature;BMP_pressure;BME280_temperature;BME280_humidity;BME280_pressure;Samples;Min_cycle;Max_cycle;Signal;HPM_P1;HPM_P2
2021/03/04 00:00:14;;;;;;;2.75;2.55;;;20.80;18.70;;;;;;5033489;28;20179;-54
2021/03/04 00:02:41;;;;;;;2.80;2.60;;;20.70;18.60;;;;;;5033386;28;20151;-54
2021/03/04 00:05:09;;;;;;;2.90;2.70;;;20.70;18.60;;;;;;5033419;28;20526;-54
2021/03/04 00:07:36;;;;;;;3.30;3.00;;;20.70;18.60;;;;;;5033494;28;20578;-54
2021/03/04 00:10:08;;;;;;;2.53;2.33;;;20.70;18.60;;;;;;5032831;28;20173;-54
2021/03/04 00:12:34;;;;;;;2.90;2.70;;;20.70;18.70;;;;;;5033374;28;20163;-53
2021/03/04 00:15:04;;;;;;;3.13;2.80;;;20.70;18.60;;;;;;5033184;28;20557;-54
2021/03/04 00:17:29;;;;;;;2.60;2.40;;;20.70;18.60;;;;;;5033067;28;20482;-53
2021/03/04 00:19:55;;;;;;;3.60;3.30;;;20.70;18.60;;;;;;5033213;28;20148;-54
2021/03/04 00:22:20;;;;;;;2.40;2.30;;;20.70;18.60;;;;;;5033585;28;20485;-53
2021/03/04 00:24:46;;;;;;;3.33;3.03;;;20.70;18.70;;;;;;5036607;28;20160;-54
2021/03/04 00:27:12;;;;;;;3.43;3.17;;;20.70;18.70;;;;;;5037102;28;20164;-54
2021/03/04 00:29:37;;;;;;;2.70;2.50;;;20.70;18.70;;;;;;5037476;28;20512;-54
2021/03/04 00:32:03;;;;;;;3.00;2.80;;;20.70;18.70;;;;;;5037170;28;20615;-54
2021/03/04 00:34:29;;;;;;;3.00;2.30;;;20.70;18.70;;;;;;5037118;28;20227;-54
2021/03/04 00:36:54;;;;;;;2.90;2.70;;;20.70;18.70;;;;;;5037217;28;20547;-53
2021/03/04 00:39:20;;;;;;;3.00;2.80;;;20.70;18.70;;;;;;5036367;28;20603;-54
2021/03/04 00:41:45;;;;;;;3.57;3.27;;;20.70;18.70;;;;;;5036950;28;20171;-53
2021/03/04 00:44:11;;;;;;;3.20;2.37;;;20.70;18.70;;;;;;5036946;28;20541;-54
2021/03/04 00:46:39;;;;;;;3.00;2.80;;;20.70;18.70;;;;;;5036697;28;20188;-54
2021/03/04 00:49:05;;;;;;;5.20;3.38;;;20.70;18.70;;;;;;5036723;28;20162;-54
2021/03/04 00:51:30;;;;;;;3.20;2.90;;;20.70;18.70;;;;;;5037206;28;20243;-54
2021/03/04 00:53:56;;;;;;;2.73;2.53;;;20.70;18.70;;;;;;5036269;28;20615;-54
2021/03/04 00:56:24;;;;;;;3.00;2.80;;;22.70;20.10;;;;;;5036701;28;20171;-53
2021/03/04 00:58:52;;;;;;;3.38;2.90;;;20.70;18.70;;;;;;5036703;28;20619;-54
2021/03/04 01:01:21;;;;;;;3.13;2.85;;;20.70;18.70;;;;;;5036614;28;20163;-54
2021/03/04 01:03:47;;;;;;;3.42;3.13;;;20.70;18.70;;;;;;5036331;28;20171;-54
2021/03/04 01:06:16;;;;;;;3.30;3.00;;;20.70;18.70;;;;;;5036543;28;20187;-54
2021/03/04 01:08:44;;;;;;;3.00;2.78;;;20.70;18.70;;;;;;5035759;28;20152;-53
2021/03/04 01:11:12;;;;;;;2.70;2.50;;;20.70;18.70;;;;;;5036517;28;20163;-54
2021/03/04 01:13:38;;;;;;;3.53;3.00;;;20.70;18.70;;;;;;5036392;28;20179;-53
2021/03/04 01:16:04;;;;;;;2.63;2.43;;;20.70;18.70;;;;;;5036412;28;20156;-54
2021/03/04 01:18:30;;;;;;;2.67;2.47;;;20.70;18.70;;;;;;5018392;28;20222;-53
2021/03/04 01:20:58;;;;;;;3.57;3.27;;;20.70;18.70;;;;;;5036247;28;20521;-54
2021/03/04 01:23:24;;;;;;;2.75;2.55;;;20.70;18.70;;;;;;5035601;28;20164;-54
2021/03/04 01:25:49;;;;;;;3.00;2.80;;;20.70;18.70;;;;;;5035958;28;20519;-54
2021/03/04 01:28:15;;;;;;;3.23;3.03;;;20.70;18.70;;;;;;5035978;28;20163;-53
2021/03/04 01:30:40;;;;;;;2.37;2.20;;;20.70;18.70;;;;;;5036157;28;20210;-54
2021/03/04 01:33:07;;;;;;;2.70;2.50;;;20.70;18.70;;;;;;5035891;28;20702;-54
2021/03/04 01:35:32;;;;;;;3.10;2.85;;;20.70;18.70;;;;;;5035905;28;20243;-54
2021/03/04 01:37:58;;;;;;;2.83;2.63;;;20.70;18.70;;;;;;5035431;28;20283;-55
2021/03/04 01:40:26;;;;;;;2.60;2.40;;;20.70;18.70;;;;;;5035623;28;20539;-54
2021/03/04 01:42:53;;;;;;;2.78;2.58;;;20.70;18.70;;;;;;5017682;28;20639;-53
2021/03/04 01:45:21;;;;;;;3.05;2.85;;;20.70;18.70;;;;;;5015932;28;20661;-54
2021/03/04 01:47:50;;;;;;;2.63;2.42;;;20.70;18.70;;;;;;5027543;28;20214;-54
2021/03/04 01:50:17;;;;;;;2.88;2.67;;;20.70;18.80;;;;;;5035597;28;20160;-53
2021/03/04 01:52:44;;;;;;;2.97;2.78;;;20.60;18.70;;;;;;5035415;28;20194;-54
2021/03/04 01:55:11;;;;;;;2.60;2.40;;;20.60;18.70;;;;;;5035085;28;20519;-54
2021/03/04 01:57:37;;;;;;;3.08;2.88;;;20.60;18.70;;;;;;5035528;28;20215;-54
2021/03/04 02:00:06;;;;;;;2.92;2.72;;;20.60;18.70;;;;;;5035426;28;20226;-54
2021/03/04 02:02:31;;;;;;;2.50;2.30;;;20.60;18.70;;;;;;5035409;28;20171;-54
2021/03/04 02:04:57;;;;;;;2.77;2.57;;;20.60;18.70;;;;;;5035084;28;20164;-54
2021/03/04 02:07:26;;;;;;;2.93;2.13;;;20.60;18.70;;;;;;5035348;28;20160;-53
2021/03/04 02:10:14;;;;;;;3.35;3.05;;;20.60;18.70;;;;;;5035049;28;20410;-53
2021/03/04 02:13:20;;;;;;;3.25;3.03;;;20.60;18.70;;;;;;5020094;28;20658;-54
2021/03/04 02:15:52;;;;;;;3.28;2.97;;;20.60;18.70;;;;;;4935862;29;20701;-54
2021/03/04 02:18:21;;;;;;;2.38;2.17;;;20.60;18.70;;;;;;5018388;28;20224;-54
2021/03/04 02:21:16;;;;;;;3.40;3.10;;;20.60;18.70;;;;;;5035080;28;20622;-53
2021/03/04 02:24:03;;;;;;;3.40;3.10;;;20.60;18.70;;;;;;5034722;28;20164;-53
2021/03/04 02:27:02;;;;;;;2.80;2.60;;;20.60;18.70;;;;;;5035066;28;20156;-54
2021/03/04 02:29:38;;;;;;;2.60;2.40;;;20.60;18.70;;;;;;5035043;28;20163;-54
2021/03/04 02:32:05;;;;;;;2.47;2.28;;;20.60;18.70;;;;;;5034868;28;20147;-53
2021/03/04 02:34:32;;;;;;;2.53;2.33;;;20.60;18.70;;;;;;5034662;28;20190;-54
2021/03/04 02:37:00;;;;;;;3.28;2.78;;;20.60;18.70;;;;;;5034696;28;20183;-54
2021/03/04 02:39:26;;;;;;;3.08;2.85;;;20.60;18.90;;;;;;5034238;28;20164;-54
2021/03/04 02:41:55;;;;;;;3.38;3.17;;;20.60;18.70;;;;;;5035037;28;20243;-54
2021/03/04 02:44:23;;;;;;;3.30;3.00;;;20.60;18.70;;;;;;5034507;28;20171;-54
2021/03/04 02:46:52;;;;;;;2.70;2.50;;;20.60;18.70;;;;;;5034065;28;20188;-54
2021/03/04 02:49:19;;;;;;;3.40;3.03;;;20.60;18.80;;;;;;5046271;28;20199;-54
2021/03/04 02:51:46;;;;;;;3.65;2.50;;;20.60;18.80;;;;;;5054401;28;20169;-54
2021/03/04 02:54:13;;;;;;;2.90;2.70;;;20.60;18.80;;;;;;5053989;28;20171;-54
2021/03/04 02:56:41;;;;;;;2.88;2.67;;;20.60;18.80;;;;;;5054266;28;20174;-53
2021/03/04 02:59:08;;;;;;;3.33;3.03;;;20.60;18.80;;;;;;5022450;28;20180;-54
2021/03/04 03:01:38;;;;;;;3.10;2.78;;;20.50;18.70;;;;;;5014640;28;20166;-54
2021/03/04 03:04:05;;;;;;;3.00;2.80;;;20.60;18.80;;;;;;5014466;28;20188;-54
2021/03/04 03:06:33;;;;;;;3.38;3.08;;;20.60;18.80;;;;;;5014459;28;20160;-53
2021/03/04 03:09:01;;;;;;;2.00;1.90;;;20.60;18.80;;;;;;5013966;28;20205;-54
2021/03/04 03:11:27;;;;;;;3.10;2.70;;;20.60;18.80;;;;;;5014495;28;20164;-54
2021/03/04 03:13:54;;;;;;;2.80;2.50;;;20.60;18.80;;;;;;5014204;28;20164;-53
2021/03/04 03:16:20;;;;;;;3.20;2.90;;;20.60;18.80;;;;;;5014868;28;20164;-53
2021/03/04 03:18:47;;;;;;;2.40;2.20;;;20.60;18.80;;;;;;5013983;28;20216;-54
2021/03/04 03:21:13;;;;;;;2.90;2.70;;;20.60;18.80;;;;;;5014549;28;20153;-54
2021/03/04 03:23:38;;;;;;;2.77;2.57;;;20.60;18.80;;;;;;5012641;28;20167;-54
2021/03/04 03:26:05;;;;;;;2.63;2.42;;;20.60;18.80;;;;;;5014323;28;20272;-54
2021/03/04 03:28:33;;;;;;;2.87;2.67;;;20.60;18.90;;;;;;5014122;28;20192;-54
2021/03/04 03:30:59;;;;;;;2.95;2.75;;;20.60;18.80;;;;;;5013011;28;20557;-54
2021/03/04 03:33:26;;;;;;;3.10;2.85;;;20.60;18.80;;;;;;5013841;28;20156;-54
2021/03/04 03:35:52;;;;;;;2.58;2.38;;;20.60;18.80;;;;;;5014088;28;20169;-54
2021/03/04 03:38:18;;;;;;;3.23;2.93;;;20.60;18.90;;;;;;5013714;28;20525;-54
2021/03/04 03:40:53;;;;;;;2.78;2.50;;;20.60;18.80;;;;;;5014003;28;20439;-53
2021/03/04 03:43:21;;;;;;;2.85;2.65;;;20.60;18.80;;;;;;5013835;28;20152;-54
2021/03/04 03:45:49;;;;;;;3.03;2.72;;;20.60;18.90;;;;;;5013650;28;20268;-54
2021/03/04 03:48:22;;;;;;;2.72;2.53;;;20.60;18.80;;;;;;5029142;28;20582;-54
2021/03/04 03:50:54;;;;;;;2.78;2.55;;;20.50;18.80;;;;;;5034016;28;20250;-54
2021/03/04 03:53:21;;;;;;;3.38;3.08;;;20.50;18.80;;;;;;5033098;28;20156;-54
2021/03/04 03:55:48;;;;;;;3.05;2.50;;;20.50;18.70;;;;;;5033528;28;20172;-54
2021/03/04 03:58:16;;;;;;;2.17;1.98;;;20.60;18.80;;;;;;5032516;28;20179;-54
2021/03/04 04:00:44;;;;;;;3.08;2.78;;;20.60;18.90;;;;;;5033630;28;20187;-54
2021/03/04 04:03:10;;;;;;;2.90;2.70;;;20.50;18.80;;;;;;5033422;28;20170;-54
2021/03/04 04:05:36;;;;;;;2.63;2.42;;;20.50;18.80;;;;;;5033466;28;20168;-54
2021/03/04 04:08:03;;;;;;;2.70;2.50;;;20.50;18.70;;;;;;5033109;28;20212;-54
2021/03/04 04:10:33;;;;;;;2.78;2.58;;;20.50;18.80;;;;;;5016215;28;20175;-54
2021/03/04 04:13:00;;;;;;;2.60;2.40;;;20.50;18.80;;;;;;5033362;28;20160;-54
2021/03/04 04:15:28;;;;;;;2.70;2.50;;;20.50;18.80;;;;;;5033509;28;20164;-54
2021/03/04 04:18:01;;;;;;;2.60;2.40;;;20.50;18.80;;;;;;5033021;28;20223;-54
2021/03/04 04:20:33;;;;;;;2.60;2.40;;;20.50;18.80;;;;;;5015679;28;20245;-54
2021/03/04 04:22:59;;;;;;;2.55;2.35;;;20.50;18.80;;;;;;5032951;28;20611;-53
2021/03/04 04:25:26;;;;;;;2.60;2.40;;;20.50;18.80;;;;;;5033372;28;20160;-54
2021/03/04 04:27:53;;;;;;;2.70;2.50;;;20.50;19.30;;;;;;5033282;28;20607;-55
2021/03/04 04:30:24;;;;;;;3.00;2.80;;;20.50;18.80;;;;;;5033202;28;20206;-54
2021/03/04 04:32:50;;;;;;;3.00;2.80;;;20.50;18.80;;;;;;5033271;28;20255;-53
2021/03/04 04:35:17;;;;;;;3.10;2.80;;;20.50;18.80;;;;;;5015490;28;20211;-54
2021/03/04 04:37:43;;;;;;;2.58;2.38;;;20.50;18.80;;;;;;5033061;28;21010;-54
2021/03/04 04:40:12;;;;;;;2.85;2.65;;;20.50;18.80;;;;;;5032690;28;20188;-54
2021/03/04 04:42:38;;;;;;;2.63;2.42;;;20.50;18.80;;;;;;5033158;28;20258;-54
2021/03/04 04:45:07;;;;;;;3.20;2.90;;;20.50;18.80;;;;;;5032924;28;20154;-54
2021/03/04 04:47:32;;;;;;;2.40;2.25;;;20.50;18.80;;;;;;5032874;28;20180;-54
2021/03/04 04:49:58;;;;;;;2.43;2.23;;;20.50;18.80;;;;;;5032924;28;20164;-54
2021/03/04 04:52:24;;;;;;;2.90;2.70;;;20.50;18.90;;;;;;5033173;28;20168;-54
2021/03/04 04:54:49;;;;;;;2.77;2.43;;;20.50;18.80;;;;;;5032512;28;20492;-54
2021/03/04 04:57:15;;;;;;;2.80;2.60;;;20.50;18.80;;;;;;5033087;28;20195;-54
2021/03/04 04:59:41;;;;;;;2.93;2.73;;;20.50;18.80;;;;;;5032846;28;20152;-54
2021/03/04 05:02:06;;;;;;;2.50;2.30;;;20.50;18.80;;;;;;5033044;28;20376;-54
2021/03/04 05:04:34;;;;;;;2.97;2.77;;;20.50;18.80;;;;;;5032889;28;20686;-53
2021/03/04 05:07:00;;;;;;;2.55;2.35;;;20.50;19.40;;;;;;5032883;28;20160;-53
2021/03/04 05:09:26;;;;;;;3.03;2.83;;;20.50;18.90;;;;;;5034026;28;20167;-54
2021/03/04 05:11:52;;;;;;;3.40;3.10;;;20.50;18.90;;;;;;5036374;28;20171;-54
2021/03/04 05:14:20;;;;;;;2.90;2.67;;;20.40;18.80;;;;;;5036560;28;20525;-55
2021/03/04 05:16:46;;;;;;;3.47;2.60;;;20.50;18.90;;;;;;5056123;28;20159;-54
2021/03/04 05:19:11;;;;;;;2.70;2.33;;;20.40;18.80;;;;;;5056014;28;20234;-54
2021/03/04 05:21:37;;;;;;;2.73;2.53;;;20.40;18.80;;;;;;5038594;28;20523;-54
2021/03/04 05:24:03;;;;;;;2.70;2.50;;;20.40;18.80;;;;;;5055482;28;20193;-54
2021/03/04 05:26:28;;;;;;;3.30;3.03;;;20.40;18.80;;;;;;5056022;28;20534;-55
2021/03/04 05:28:54;;;;;;;2.60;2.40;;;20.40;18.80;;;;;;5055615;28;20518;-54
2021/03/04 05:31:21;;;;;;;3.17;2.83;;;20.40;18.80;;;;;;5056171;28;20164;-54
2021/03/04 05:33:47;;;;;;;3.20;2.92;;;20.40;18.80;;;;;;5055764;28;20637;-54
2021/03/04 05:36:15;;;;;;;2.70;2.50;;;20.40;18.80;;;;;;5055860;28;20159;-53
2021/03/04 05:38:41;;;;;;;3.00;2.80;;;20.40;18.80;;;;;;5055216;28;20191;-54
2021/03/04 05:41:08;;;;;;;2.60;2.40;;;20.40;18.80;;;;;;5055824;28;20514;-55
2021/03/04 05:43:36;;;;;;;2.60;2.40;;;20.40;18.80;;;;;;5055422;28;20627;-54
2021/03/04 05:46:02;;;;;;;2.70;2.50;;;20.40;18.80;;;;;;5055685;28;20144;-54
2021/03/04 05:48:28;;;;;;;3.00;2.80;;;20.40;18.80;;;;;;5038017;28;20198;-54
2021/03/04 05:50:57;;;;;;;2.10;2.00;;;20.40;18.80;;;;;;5035643;28;20238;-54
2021/03/04 05:53:23;;;;;;;3.40;3.10;;;20.40;18.90;;;;;;5035078;28;20156;-55
2021/03/04 05:55:52;;;;;;;3.08;2.40;;;20.40;18.80;;;;;;5035688;28;20600;-55
2021/03/04 05:58:22;;;;;;;2.58;2.30;;;20.40;18.80;;;;;;5035282;28;20196;-54
2021/03/04 06:00:48;;;;;;;2.67;2.47;;;20.40;18.80;;;;;;5035424;28;20160;-54
2021/03/04 06:03:13;;;;;;;2.60;2.40;;;20.40;18.90;;;;;;5035587;28;20185;-54
2021/03/04 06:05:39;;;;;;;2.60;2.37;;;20.40;18.80;;;;;;5035384;28;20635;-54
2021/03/04 06:08:06;;;;;;;2.80;2.60;;;20.40;18.80;;;;;;5034643;28;20156;-54
2021/03/04 06:10:33;;;;;;;2.90;2.70;;;20.40;18.80;;;;;;5035074;28;20171;-54
2021/03/04 06:12:59;;;;;;;2.70;2.50;;;20.40;18.90;;;;;;5034827;28;20607;-54
2021/03/04 06:15:29;;;;;;;2.63;2.45;;;20.40;18.90;;;;;;5035114;28;20247;-54
2021/03/04 06:17:56;;;;;;;2.60;2.40;;;20.40;18.80;;;;;;5034924;28;20226;-54
2021/03/04 06:20:34;;;;;;;2.25;2.05;;;20.40;18.90;;;;;;5034231;28;20175;-54
2021/03/04 06:23:00;;;;;;;2.80;2.40;;;20.40;18.90;;;;;;5034416;28;20427;-54
2021/03/04 06:25:28;;;;;;;2.10;1.92;;;20.40;18.80;;;;;;5035095;28;20231;-54
2021/03/04 06:27:54;;;;;;;3.40;2.58;;;20.40;18.80;;;;;;5034764;28;20175;-54
2021/03/04 06:30:20;;;;;;;3.00;2.70;;;20.40;18.80;;;;;;5034550;28;20496;-55
2021/03/04 06:33:01;;;;;;;2.63;2.43;;;20.40;18.80;;;;;;5034747;28;20182;-55
2021/03/04 06:35:37;;;;;;;2.70;2.50;;;20.40;18.80;;;;;;5035054;28;20921;-55
2021/03/04 06:38:18;;;;;;;2.90;2.70;;;20.40;18.80;;;;;;5034054;28;20262;-54
2021/03/04 06:40:44;;;;;;;2.63;2.42;;;20.40;18.80;;;;;;5034603;28;20163;-54
2021/03/04 06:43:27;;;;;;;2.63;2.42;;;20.40;18.90;;;;;;5034464;28;20171;-54
2021/03/04 06:46:07;;;;;;;2.88;2.60;;;20.40;18.90;;;;;;5034350;28;20147;-54
2021/03/04 06:48:34;;;;;;;3.17;2.30;;;20.40;18.80;;;;;;5034318;28;20187;-54
2021/03/04 06:51:05;;;;;;;2.40;2.20;;;20.40;18.80;;;;;;5034308;28;20191;-54
2021/03/04 06:53:32;;;;;;;3.05;2.85;;;20.40;18.80;;;;;;5033909;28;20584;-55
2021/03/04 06:56:05;;;;;;;2.20;2.10;;;20.40;18.80;;;;;;5034533;28;20156;-54
2021/03/04 06:58:38;;;;;;;2.85;2.65;;;20.40;18.80;;;;;;5034119;28;20274;-54
2021/03/04 07:01:11;;;;;;;2.65;2.45;;;20.40;18.80;;;;;;5034261;28;20183;-55
2021/03/04 07:03:45;;;;;;;3.17;2.80;;;20.40;18.80;;;;;;5033904;28;20234;-54
2021/03/04 07:06:16;;;;;;;3.28;3.05;;;20.40;18.80;;;;;;5016265;28;20634;-54
2021/03/04 07:08:44;;;;;;;2.80;2.60;;;20.40;18.80;;;;;;5033352;28;20171;-54
2021/03/04 07:11:18;;;;;;;3.53;3.28;;;20.40;18.80;;;;;;5033904;28;20159;-54
2021/03/04 07:13:45;;;;;;;2.53;2.33;;;20.40;18.80;;;;;;5033805;28;20158;-55
2021/03/04 07:16:35;;;;;;;2.50;2.30;;;20.40;18.80;;;;;;5033698;28;20168;-54
2021/03/04 07:19:04;;;;;;;3.13;2.88;;;20.40;18.80;;;;;;5033234;28;20227;-54
2021/03/04 07:21:47;;;;;;;7.50;3.05;;;20.40;18.70;;;;;;5031437;28;20172;-51
2021/03/04 07:24:13;;;;;;;9.88;8.88;;;21.80;19.80;;;;;;5009408;28;20240;-51
2021/03/04 07:26:39;;;;;;;30.08;11.27;;;19.50;11.90;;;;;;5033599;28;20171;-52
2021/03/04 07:29:14;;;;;;;13.38;10.70;;;18.00;10.80;;;;;;5032771;28;20162;-52
2021/03/04 07:31:42;;;;;;;12.75;10.50;;;16.90;11.80;;;;;;5008315;28;20179;-51
2021/03/04 07:34:19;;;;;;;10.20;8.05;;;16.30;13.70;;;;;;5020544;28;20262;-52
2021/03/04 07:36:47;;;;;;;11.77;7.35;;;16.40;17.20;;;;;;5032550;28;20265;-54
2021/03/04 07:39:17;;;;;;;12.73;7.97;;;16.70;18.10;;;;;;5032124;28;20250;-51
2021/03/04 07:41:44;;;;;;;10.75;8.00;;;17.10;18.30;;;;;;5032716;28;20175;-52
2021/03/04 07:44:26;;;;;;;10.95;8.10;;;17.40;18.50;;;;;;5031898;28;20167;-51
2021/03/04 07:47:03;;;;;;;7.65;6.72;;;17.80;18.40;;;;;;5032024;28;20241;-52
2021/03/04 07:49:34;;;;;;;9.75;6.72;;;18.10;18.30;;;;;;5032897;28;20151;-51
2021/03/04 07:52:21;;;;;;;10.30;7.25;;;18.30;18.50;;;;;;5032794;28;20371;-51
2021/03/04 07:54:58;;;;;;;12.80;7.57;;;18.60;18.70;;;;;;5031478;28;20152;-51
2021/03/04 07:57:26;;;;;;;6.70;6.00;;;18.70;18.60;;;;;;5031547;28;20249;-51
2021/03/04 07:59:59;;;;;;;11.15;6.28;;;18.90;18.60;;;;;;5026397;28;20179;-51
2021/03/04 08:02:27;;;;;;;9.07;6.60;;;19.10;18.80;;;;;;5020013;28;20605;-51
2021/03/04 08:05:12;;;;;;;6.85;6.00;;;19.20;18.70;;;;;;5011312;28;20225;-52
2021/03/04 08:07:39;;;;;;;6.00;5.40;;;19.30;18.40;;;;;;5016839;28;20188;-51
2021/03/04 08:10:23;;;;;;;7.25;5.53;;;19.40;18.30;;;;;;5026416;28;20192;-51
2021/03/04 08:12:58;;;;;;;8.27;5.55;;;19.50;18.10;;;;;;5015541;28;20160;-51
2021/03/04 08:15:35;;;;;;;6.25;5.65;;;19.60;18.10;;;;;;5011857;28;20179;-52
2021/03/04 08:18:02;;;;;;;7.18;4.53;;;19.60;18.20;;;;;;5031188;28;20226;-51
2021/03/04 08:20:29;;;;;;;6.95;4.43;;;19.70;18.50;;;;;;5031730;28;20168;-51
2021/03/04 08:22:57;;;;;;;7.13;5.68;;;19.80;18.60;;;;;;5002663;28;20206;-52
2021/03/04 08:25:29;;;;;;;5.80;5.30;;;19.80;18.70;;;;;;5020139;28;20168;-51
2021/03/04 08:27:59;;;;;;;6.72;4.85;;;19.90;18.90;;;;;;5014328;28;20180;-50
2021/03/04 08:30:38;;;;;;;5.43;4.55;;;19.90;19.00;;;;;;5017737;28;20175;-50
2021/03/04 08:33:13;;;;;;;6.00;5.40;;;20.00;19.10;;;;;;5023290;28;20195;-54
2021/03/04 08:35:47;;;;;;;4.50;4.10;;;20.00;19.20;;;;;;5023091;28;20191;-51
2021/03/04 08:38:21;;;;;;;4.30;3.90;;;20.00;19.20;;;;;;5025140;28;20183;-51
2021/03/04 08:40:56;;;;;;;8.73;3.72;;;20.10;19.30;;;;;;5021836;28;20168;-51
2021/03/04 08:43:26;;;;;;;5.45;4.00;;;20.10;19.30;;;;;;5019445;28;20262;-51
2021/03/04 08:45:53;;;;;;;7.85;4.22;;;20.20;19.40;;;;;;5023090;28;20203;-51
2021/03/04 08:48:22;;;;;;;4.40;3.95;;;20.20;19.40;;;;;;5022181;28;20238;-51
2021/03/04 08:50:50;;;;;;;4.53;4.03;;;20.20;19.40;;;;;;5015569;28;20263;-51
2021/03/04 08:53:30;;;;;;;4.57;4.13;;;20.30;19.50;;;;;;5020201;28;20176;-51
2021/03/04 08:55:58;;;;;;;5.47;4.15;;;20.30;19.50;;;;;;5025831;28;20258;-51
2021/03/04 08:58:26;;;;;;;4.80;4.30;;;20.30;19.50;;;;;;5024097;28;20199;-50
2021/03/04 09:01:00;;;;;;;4.38;3.50;;;20.40;19.60;;;;;;5029540;28;20176;-51
2021/03/04 09:03:27;;;;;;;4.63;3.60;;;20.40;19.60;;;;;;5020243;28;20176;-51
2021/03/04 09:06:13;;;;;;;5.00;4.50;;;20.40;19.50;;;;;;5033148;28;20184;-51
2021/03/04 09:08:43;;;;;;;4.05;3.30;;;20.50;19.50;;;;;;5025352;28;20176;-51
2021/03/04 09:11:22;;;;;;;4.45;3.75;;;20.50;19.50;;;;;;5030899;28;20651;-50
2021/03/04 09:13:48;;;;;;;4.00;3.60;;;20.50;19.50;;;;;;5022852;28;20164;-51
2021/03/04 09:16:13;;;;;;;3.30;3.00;;;20.60;19.60;;;;;;5029414;28;20571;-51
2021/03/04 09:18:44;;;;;;;3.80;3.40;;;20.60;19.60;;;;;;5025374;28;20292;-51
2021/03/04 09:21:18;;;;;;;4.03;3.72;;;20.60;19.60;;;;;;5014841;28;20180;-52
2021/03/04 09:23:44;;;;;;;3.78;3.47;;;20.60;19.60;;;;;;5028696;28;20183;-52
2021/03/04 09:26:13;;;;;;;7.55;3.75;;;20.70;19.70;;;;;;5033069;28;20703;-52
2021/03/04 09:28:41;;;;;;;4.88;3.70;;;20.80;19.60;;;;;;5025445;28;20182;-53
2021/03/04 09:31:15;;;;;;;4.68;3.55;;;20.90;19.60;;;;;;5020312;28;20219;-52
2021/03/04 09:33:43;;;;;;;4.55;4.10;;;21.00;19.30;;;;;;5025797;28;20175;-52
2021/03/04 09:36:09;;;;;;;6.45;4.13;;;21.00;19.00;;;;;;5024498;28;20207;-52
2021/03/04 09:38:37;;;;;;;5.50;4.37;;;21.10;19.00;;;;;;5026315;28;20227;-53
2021/03/04 09:41:16;;;;;;;5.60;3.47;;;21.10;19.00;;;;;;5005979;28;20842;-52
2021/03/04 09:43:44;;;;;;;4.50;4.10;;;21.20;18.70;;;;;;5019734;28;20180;-54
2021/03/04 09:46:12;;;;;;;4.95;3.83;;;21.20;19.00;;;;;;5023796;28;20168;-53
2021/03/04 09:48:39;;;;;;;4.18;3.60;;;21.30;19.00;;;;;;5025571;28;20684;-52
2021/03/04 09:51:06;;;;;;;6.22;3.08;;;21.40;19.10;;;;;;5009966;28;20521;-52
2021/03/04 09:53:46;;;;;;;5.65;3.38;;;21.40;18.80;;;;;;5015021;28;20195;-53
2021/03/04 09:56:21;;;;;;;6.55;4.28;;;21.50;18.80;;;;;;5027543;28;20188;-53
2021/03/04 09:58:48;;;;;;;4.28;3.55;;;21.50;18.50;;;;;;5001454;28;20220;-53
2021/03/04 10:01:14;;;;;;;7.28;4.57;;;21.60;18.60;;;;;;5027679;28;20270;-53
2021/03/04 10:03:41;;;;;;;5.20;4.17;;;21.60;18.50;;;;;;5016221;28;20691;-54
2021/03/04 10:06:20;;;;;;;4.82;4.18;;;21.60;18.40;;;;;;5024941;28;20423;-53
2021/03/04 10:08:51;;;;;;;4.57;4.18;;;21.60;18.20;;;;;;5010349;28;20214;-54
2021/03/04 10:11:28;;;;;;;5.68;3.75;;;21.70;18.30;;;;;;5039309;28;20270;-52
2021/03/04 10:13:54;;;;;;;4.70;3.30;;;21.70;18.40;;;;;;5032283;28;20163;-52
2021/03/04 10:16:20;;;;;;;4.55;3.17;;;21.80;18.70;;;;;;5033331;28;20176;-51
2021/03/04 10:18:50;;;;;;;7.20;3.60;;;21.80;18.70;;;;;;5034195;28;20552;-53
2021/03/04 10:21:19;;;;;;;3.33;3.03;;;21.90;18.70;;;;;;5034594;28;20421;-53
2021/03/04 10:23:50;;;;;;;5.18;3.30;;;21.90;18.60;;;;;;5032381;28;20178;-51
2021/03/04 10:26:16;;;;;;;4.50;3.08;;;21.90;18.50;;;;;;5032847;28;20156;-52
2021/03/04 10:28:42;;;;;;;3.90;2.90;;;22.00;18.60;;;;;;5033823;28;20164;-52
2021/03/04 10:31:08;;;;;;;3.13;2.83;;;22.10;18.60;;;;;;5034375;28;20210;-52
2021/03/04 10:33:33;;;;;;;5.40;4.17;;;22.10;18.50;;;;;;5033040;28;20507;-54
2021/03/04 10:35:59;;;;;;;3.93;3.10;;;22.10;18.50;;;;;;5033054;28;20582;-53
2021/03/04 10:38:25;;;;;;;3.65;2.85;;;22.20;18.40;;;;;;5033615;28;20642;-53
2021/03/04 10:40:51;;;;;;;2.90;2.60;;;22.20;18.30;;;;;;5033551;28;20168;-52
2021/03/04 10:43:17;;;;;;;3.30;3.00;;;22.30;18.40;;;;;;5032917;28;20638;-52
2021/03/04 10:45:43;;;;;;;8.57;3.50;;;22.30;18.30;;;;;;5033240;28;20168;-52
2021/03/04 10:48:10;;;;;;;7.43;3.10;;;22.30;18.30;;;;;;5032750;28;20179;-52
2021/03/04 10:50:35;;;;;;;2.75;2.40;;;22.40;18.20;;;;;;5033867;28;20180;-53
2021/03/04 10:53:06;;;;;;;3.47;3.17;;;22.40;18.10;;;;;;5031900;28;20168;-52
2021/03/04 10:55:32;;;;;;;4.10;3.30;;;22.40;18.00;;;;;;5016032;28;20607;-52
2021/03/04 10:57:58;;;;;;;4.03;3.63;;;22.50;17.90;;;;;;5032245;28;20206;-52
2021/03/04 11:00:24;;;;;;;3.10;2.90;;;22.50;17.90;;;;;;5033353;28;20164;-53
2021/03/04 11:02:49;;;;;;;3.40;3.00;;;22.50;17.90;;;;;;5031946;28;20413;-52
2021/03/04 11:05:15;;;;;;;6.17;3.37;;;22.60;18.00;;;;;;5032859;28;20179;-51
2021/03/04 11:07:41;;;;;;;4.40;3.20;;;22.60;18.00;;;;;;5031750;28;20547;-52
2021/03/04 11:10:09;;;;;;;3.20;2.83;;;22.60;18.00;;;;;;5015375;28;20524;-52
2021/03/04 11:12:35;;;;;;;4.88;2.92;;;22.70;18.10;;;;;;5032709;28;20539;-51
2021/03/04 11:15:01;;;;;;;3.60;3.30;;;22.70;18.00;;;;;;5031774;28;20612;-51
2021/03/04 11:17:26;;;;;;;3.40;3.00;;;22.70;18.00;;;;;;5033179;28;20421;-53
2021/03/04 11:19:52;;;;;;;2.90;2.43;;;22.80;18.10;;;;;;5031918;28;20576;-53
2021/03/04 11:22:18;;;;;;;3.70;3.30;;;22.80;18.10;;;;;;5033330;28;20168;-52
2021/03/04 11:24:47;;;;;;;3.27;2.73;;;22.80;18.10;;;;;;5031352;28;20159;-53
2021/03/04 11:27:16;;;;;;;2.95;2.75;;;22.90;18.20;;;;;;5015063;28;20415;-52
2021/03/04 11:29:45;;;;;;;3.35;2.85;;;22.90;18.20;;;;;;5031075;28;20597;-53
2021/03/04 11:32:11;;;;;;;4.25;3.33;;;22.80;18.00;;;;;;5025171;28;20187;-53
2021/03/04 11:34:37;;;;;;;3.00;2.77;;;22.90;18.00;;;;;;5027024;28;20182;-54
2021/03/04 11:37:02;;;;;;;4.43;3.20;;;22.90;18.00;;;;;;5030450;28;20190;-53
2021/03/04 11:39:28;;;;;;;4.20;3.13;;;22.90;17.80;;;;;;5030661;28;20182;-54
2021/03/04 11:41:54;;;;;;;11.53;3.60;;;22.90;17.80;;;;;;5031887;28;20160;-54
2021/03/04 11:44:20;;;;;;;5.93;4.10;;;22.90;17.80;;;;;;5031822;28;20794;-54
2021/03/04 11:46:46;;;;;;;3.90;3.50;;;22.90;17.80;;;;;;5030742;28;20643;-53
2021/03/04 11:49:12;;;;;;;4.77;3.20;;;22.90;17.80;;;;;;5032238;28;20621;-53
2021/03/04 11:51:37;;;;;;;3.40;3.00;;;22.90;17.80;;;;;;5031683;28;20595;-53
2021/03/04 11:54:03;;;;;;;4.17;2.80;;;22.90;17.80;;;;;;5031352;28;20410;-53
2021/03/04 11:56:31;;;;;;;5.03;3.08;;;22.90;17.80;;;;;;5032808;28;20156;-53
2021/03/04 11:58:57;;;;;;;5.55;3.08;;;22.90;17.90;;;;;;5013747;28;20195;-53
2021/03/04 12:01:22;;;;;;;4.20;3.57;;;22.90;18.00;;;;;;5031357;28;20195;-53
2021/03/04 12:03:50;;;;;;;7.87;2.90;;;22.90;18.00;;;;;;5029232;28;20663;-53
2021/03/04 12:06:16;;;;;;;2.63;2.45;;;22.90;18.00;;;;;;5016566;28;20512;-52
2021/03/04 12:08:41;;;;;;;4.23;3.60;;;22.90;18.00;;;;;;5026841;28;20670;-53
2021/03/04 12:11:07;;;;;;;5.10;3.27;;;22.80;18.10;;;;;;5031419;28;20164;-52
2021/03/04 12:13:34;;;;;;;4.60;3.17;;;22.90;18.20;;;;;;5031507;28;20661;-52
2021/03/04 12:16:04;;;;;;;3.20;2.90;;;22.90;18.10;;;;;;5032599;28;20198;-53
2021/03/04 12:18:29;;;;;;;3.75;2.47;;;22.90;18.20;;;;;;5031514;28;20269;-53
2021/03/04 12:20:55;;;;;;;4.63;2.83;;;22.90;18.10;;;;;;5036796;28;20156;-54
2021/03/04 12:23:21;;;;;;;5.40;2.63;;;22.90;18.20;;;;;;5032556;28;20647;-52
2021/03/04 12:25:56;;;;;;;3.43;3.07;;;22.90;18.20;;;;;;5036128;28;20608;-54
2021/03/04 12:28:22;;;;;;;6.20;3.67;;;22.90;18.20;;;;;;5036453;28;20167;-54
2021/03/04 12:30:50;;;;;;;7.13;3.70;;;22.90;18.20;;;;;;5035435;28;20230;-52
2021/03/04 12:33:17;;;;;;;4.68;2.70;;;;;;;;;;5015401;28;20919;-53
2021/03/04 12:35:45;;;;;;;4.00;3.33;;;23.00;17.60;;;;;;5036038;28;20160;-53
2021/03/04 12:38:11;;;;;;;3.90;2.90;;;22.90;18.00;;;;;;5035361;28;20301;-52
2021/03/04 12:40:37;;;;;;;3.50;2.60;;;22.90;18.00;;;;;;5036018;28;20231;-52
2021/03/04 12:43:04;;;;;;;3.13;2.40;;;23.00;18.10;;;;;;5033723;28;20692;-52
2021/03/04 12:45:30;;;;;;;3.25;2.90;;;22.90;18.10;;;;;;5035956;28;20468;-52
2021/03/04 12:47:55;;;;;;;5.83;2.87;;;22.90;18.10;;;;;;5035869;28;20196;-52
2021/03/04 12:50:21;;;;;;;3.43;2.77;;;22.90;18.20;;;;;;5018497;28;20753;-51
2021/03/04 12:52:47;;;;;;;3.27;2.97;;;23.00;18.80;;;;;;5017192;28;20623;-51